Pagina principală
METAR-TAF:

METAR-TAF

Aeroporturi :

Debrețin, Ungaria

Latitudine: 47-29N, longitudine: 021-36E, elevație: 108 m

Observații meteo curente

Raportul a fost făcut în urmă cu 42 de minute, la 13:15 UTC
Vânt 3 kt din direcții variabile
Temperatură 25°C
Umiditate 41%
Presiune 1012 hPa
Vizibilitate de 10 km sau mai mult
nu există nori sub 1.500 m și nici cumulonimbus

METAR: LHDC 151315Z AUTO VRB03KT CAVOK 25/11 Q1012 NOSIG

Ora: 15:57 (13:57 UTC)

Prognoză

Raportul a fost făcut în urmă cu 2 ore și 42 de minute, la 11:15 UTC
Prognoză valabilă de la 15 ora 12 UTC la 15 ora 21 UTC
Vânt 3 kt din direcții variabile
Vizibilitate de 10 km sau mai mult
nu există nori sub 1.500 m și nici cumulonimbus

TAF: LHDC 151115Z 1512/1521 VRB03KT CAVOK

Observații și prognoze meteo pentru peste 4.000 de aeroporturi (rapoarte METAR și TAF).

Stațiile disponibile sunt reprezentate pe hartă prin puncte galbene și roșii.

Țineți indicatorul mouse-ului pe punctul dorit pentru a vedea denumirea stației.

Apoi, faceți clic pentru a vedea observațiile și prognozele meteorologice.

Pentru a schimba harta: Pentru mărire, faceți clic pe butoanele verzi cu cruce neagră; pentru micșorare, pe butonul verde cu o liniuță; pentru hărți învecinate, pe săgețile verzi.


METAR-TAF: